createdAt,value
2023-03-12T00:00:54.716Z,91.04
2023-03-12T00:01:51.322Z,90.37
2023-03-12T00:02:48.402Z,90.84
2023-03-12T00:03:45.539Z,91.23
2023-03-12T00:04:42.510Z,91.15
2023-03-12T00:05:41.422Z,91.02
2023-03-12T00:06:38.125Z,90.81
2023-03-12T00:07:36.624Z,91.25
2023-03-12T00:08:33.541Z,90.78
2023-03-12T00:09:30.181Z,91.04
2023-03-12T00:10:28.457Z,91.50
2023-03-12T00:11:25.158Z,91.35
2023-03-12T00:12:21.840Z,91.12
2023-03-12T00:13:18.517Z,90.19
2023-03-12T00:14:15.229Z,89.07
2023-03-12T00:15:12.112Z,89.18
2023-03-12T00:16:12.790Z,89.17
2023-03-12T00:17:09.481Z,89.70
2023-03-12T00:18:06.507Z,89.27
2023-03-12T00:19:03.143Z,89.38
2023-03-12T00:19:59.839Z,88.29
2023-03-12T00:20:56.592Z,86.61
2023-03-12T00:21:53.227Z,86.24
2023-03-12T00:22:50.546Z,85.84
2023-03-12T00:23:49.103Z,85.11
2023-03-12T00:24:49.884Z,84.76
2023-03-12T00:25:46.999Z,85.77
2023-03-12T00:26:44.218Z,85.52
2023-03-12T00:27:41.208Z,86.08
2023-03-12T00:28:38.802Z,86.59
2023-03-12T00:29:36.169Z,86.68
2023-03-12T00:30:32.814Z,85.98
2023-03-12T00:31:32.828Z,86.15
2023-03-12T00:32:29.555Z,86.60
2023-03-12T00:33:27.131Z,86.40
2023-03-12T00:34:23.840Z,86.60
2023-03-12T00:35:20.558Z,87.53
2023-03-12T00:36:18.957Z,87.13
2023-03-12T00:37:15.649Z,85.55
2023-03-12T00:38:12.394Z,85.68
2023-03-12T00:39:09.915Z,85.52
2023-03-12T00:40:09.258Z,85.57
2023-03-12T00:41:06.013Z,86.36
2023-03-12T00:42:02.702Z,87.72
2023-03-12T00:42:59.412Z,88.56
2023-03-12T00:43:56.392Z,87.52
2023-03-12T00:44:53.073Z,86.86
2023-03-12T00:45:49.830Z,87.35
2023-03-12T00:46:46.473Z,87.32
2023-03-12T00:47:43.100Z,88.07
2023-03-12T00:48:40.407Z,88.14
2023-03-12T00:49:37.449Z,88.20
2023-03-12T00:50:34.165Z,88.46
2023-03-12T00:51:30.938Z,88.69
2023-03-12T00:52:27.560Z,88.48
2023-03-12T00:53:24.256Z,87.50
2023-03-12T00:54:21.387Z,87.94
2023-03-12T00:55:18.108Z,88.52
2023-03-12T00:56:15.486Z,89.43
2023-03-12T00:57:12.183Z,90.36
2023-03-12T00:58:08.822Z,90.76
2023-03-12T00:59:05.482Z,91.74
2023-03-12T01:00:02.262Z,91.82
2023-03-12T01:00:59.185Z,91.17
2023-03-12T01:01:55.812Z,91.71
2023-03-12T01:02:52.435Z,92.16
2023-03-12T01:03:52.056Z,90.87
2023-03-12T01:04:50.000Z,89.90
2023-03-12T01:05:46.641Z,88.19
2023-03-12T01:06:43.326Z,86.59
2023-03-12T01:07:40.218Z,85.07
2023-03-12T01:08:36.934Z,85.10
2023-03-12T01:09:33.899Z,85.60
2023-03-12T01:10:31.018Z,86.84
2023-03-12T01:11:27.785Z,87.22
2023-03-12T01:12:24.445Z,88.46
2023-03-12T01:13:21.619Z,88.94
2023-03-12T01:14:18.704Z,88.96
2023-03-12T01:15:17.597Z,88.31
2023-03-12T01:16:14.725Z,87.46
2023-03-12T01:17:11.432Z,87.12
2023-03-12T01:18:08.221Z,88.19
2023-03-12T01:19:04.920Z,88.95
2023-03-12T01:20:01.906Z,89.83
2023-03-12T01:20:59.404Z,90.37
2023-03-12T01:21:56.060Z,91.00
2023-03-12T01:22:53.554Z,91.60
2023-03-12T01:23:51.047Z,91.65
2023-03-12T01:24:48.308Z,91.91
2023-03-12T01:25:44.910Z,92.36
2023-03-12T01:26:41.505Z,92.54
2023-03-12T01:27:38.204Z,92.97
2023-03-12T01:28:34.806Z,93.39
2023-03-12T01:29:31.394Z,93.96
2023-03-12T01:30:28.815Z,94.50
2023-03-12T01:31:25.610Z,94.19
2023-03-12T01:32:22.423Z,94.12
2023-03-12T01:33:19.074Z,93.64
2023-03-12T01:34:15.817Z,93.32
2023-03-12T01:35:12.487Z,92.88
2023-03-12T01:36:23.296Z,92.60
2023-03-12T01:37:19.954Z,92.63
2023-03-12T01:38:16.618Z,92.70
2023-03-12T01:39:14.072Z,92.89
2023-03-12T01:40:20.227Z,91.91
2023-03-12T01:41:16.872Z,92.35
2023-03-12T01:42:13.436Z,92.00
2023-03-12T01:43:28.732Z,91.96
2023-03-12T01:44:25.291Z,90.24
2023-03-12T01:45:52.937Z,88.06
2023-03-12T01:46:49.751Z,88.64
2023-03-12T01:47:46.287Z,88.29
2023-03-12T01:48:57.172Z,88.27
2023-03-12T01:49:55.897Z,87.63
2023-03-12T01:50:52.511Z,87.81
2023-03-12T01:51:49.094Z,87.55
2023-03-12T01:52:45.717Z,87.15
2023-03-12T01:53:47.178Z,86.98
2023-03-12T01:54:59.694Z,85.46
2023-03-12T01:55:58.822Z,84.84
2023-03-12T01:56:56.702Z,84.38
2023-03-12T01:57:57.924Z,83.94
2023-03-12T01:58:58.562Z,84.31
2023-03-12T02:00:02.282Z,85.47
2023-03-12T02:00:59.807Z,86.75
2023-03-12T02:01:57.160Z,85.70
2023-03-12T02:02:59.763Z,86.69
2023-03-12T02:03:59.837Z,85.13
2023-03-12T02:05:17.104Z,84.79
2023-03-12T02:06:15.533Z,85.92
2023-03-12T02:07:15.642Z,85.88
2023-03-12T02:08:14.684Z,86.31
2023-03-12T02:09:13.205Z,86.45
2023-03-12T02:10:11.005Z,86.08
2023-03-12T02:11:07.734Z,85.59
2023-03-12T02:12:05.245Z,85.19
2023-03-12T02:13:02.003Z,85.14
2023-03-12T02:13:58.754Z,85.30
2023-03-12T02:14:55.374Z,84.83
2023-03-12T02:15:51.986Z,84.09
2023-03-12T02:16:49.080Z,83.51
2023-03-12T02:17:46.078Z,82.74
2023-03-12T02:18:44.382Z,83.64
2023-03-12T02:20:09.217Z,84.64
2023-03-12T02:21:23.002Z,84.01
2023-03-12T02:22:21.136Z,83.93
2023-03-12T02:23:30.495Z,83.74
2023-03-12T02:24:36.029Z,82.97
2023-03-12T02:25:39.729Z,83.26
2023-03-12T02:26:39.293Z,84.04
2023-03-12T02:27:37.853Z,83.62
2023-03-12T02:28:42.679Z,82.93
2023-03-12T02:29:42.236Z,82.88
2023-03-12T02:30:42.827Z,81.90
2023-03-12T02:31:43.896Z,83.56
2023-03-12T02:32:41.117Z,84.60
2023-03-12T02:33:37.881Z,85.22
2023-03-12T02:34:34.877Z,85.65
2023-03-12T02:35:31.723Z,85.29
2023-03-12T02:36:28.495Z,85.79
2023-03-12T02:37:25.115Z,86.65
2023-03-12T02:38:49.203Z,86.55
2023-03-12T02:39:54.910Z,85.40
2023-03-12T02:40:52.656Z,83.23
2023-03-12T02:41:54.405Z,83.34
2023-03-12T02:42:52.239Z,84.64
2023-03-12T02:44:14.703Z,85.65
2023-03-12T02:45:11.483Z,85.58
2023-03-12T02:46:09.037Z,85.15
2023-03-12T02:47:06.023Z,86.61
2023-03-12T02:48:04.118Z,88.41
2023-03-12T02:49:01.411Z,89.59
2023-03-12T02:49:58.169Z,90.06
2023-03-12T02:50:54.867Z,89.87
2023-03-12T02:51:52.013Z,90.42
2023-03-12T02:52:49.824Z,89.63
2023-03-12T02:53:46.897Z,86.35
2023-03-12T02:54:43.499Z,85.90
2023-03-12T02:55:40.077Z,82.86
2023-03-12T02:56:37.424Z,80.05
2023-03-12T02:57:37.639Z,78.73
2023-03-12T02:58:34.345Z,77.89
2023-03-12T02:59:31.107Z,77.72
2023-03-12T03:00:27.874Z,79.96
2023-03-12T03:01:24.838Z,79.60
2023-03-12T03:02:21.485Z,80.80
2023-03-12T03:03:18.056Z,81.82
2023-03-12T03:04:14.664Z,80.60
2023-03-12T03:05:12.345Z,81.03
2023-03-12T03:06:09.228Z,80.10
2023-03-12T03:07:06.023Z,81.73
2023-03-12T03:08:04.361Z,83.35
2023-03-12T03:09:02.399Z,82.70
2023-03-12T03:10:04.497Z,82.94
2023-03-12T03:11:03.106Z,82.67
2023-03-12T03:11:59.757Z,82.86
2023-03-12T03:12:57.767Z,83.25
2023-03-12T03:13:55.247Z,82.81
2023-03-12T03:14:51.854Z,83.11
2023-03-12T03:15:48.554Z,80.45
2023-03-12T03:16:45.356Z,82.08
2023-03-12T03:17:41.963Z,83.79
2023-03-12T03:18:38.641Z,85.08
2023-03-12T03:19:35.357Z,83.75
2023-03-12T03:20:32.526Z,83.34
2023-03-12T03:21:30.472Z,84.04
2023-03-12T03:22:27.166Z,84.98
2023-03-12T03:23:24.365Z,84.59
2023-03-12T03:24:21.129Z,83.74
2023-03-12T03:25:18.381Z,84.10
2023-03-12T03:26:18.151Z,84.12
2023-03-12T03:27:15.672Z,83.87
2023-03-12T03:28:12.403Z,83.81
2023-03-12T03:29:09.081Z,84.70
2023-03-12T03:30:06.566Z,84.12
2023-03-12T03:31:04.127Z,84.87
2023-03-12T03:32:00.893Z,85.12
2023-03-12T03:32:57.553Z,85.26
2023-03-12T03:33:54.221Z,85.58
2023-03-12T03:34:50.976Z,85.59
2023-03-12T03:35:48.849Z,86.11
2023-03-12T03:36:45.465Z,86.11
2023-03-12T03:37:42.111Z,86.29
2023-03-12T03:38:38.725Z,86.42
2023-03-12T03:39:35.912Z,85.80
2023-03-12T03:40:32.512Z,85.11
2023-03-12T03:41:29.200Z,85.59
2023-03-12T03:42:25.888Z,86.17
2023-03-12T03:43:23.238Z,87.13
2023-03-12T03:44:19.989Z,86.75
2023-03-12T03:45:17.770Z,86.87
2023-03-12T03:46:15.104Z,87.22
2023-03-12T03:47:11.697Z,87.19
2023-03-12T03:48:08.321Z,87.13
2023-03-12T03:49:05.069Z,86.89
2023-03-12T03:50:01.861Z,87.15
2023-03-12T03:51:03.637Z,86.16
2023-03-12T03:52:00.307Z,86.48
2023-03-12T03:52:57.077Z,87.78
2023-03-12T03:53:54.080Z,87.38
2023-03-12T03:54:50.653Z,87.14
2023-03-12T03:55:47.716Z,87.36
2023-03-12T03:56:45.071Z,87.39
2023-03-12T03:57:41.728Z,87.11
2023-03-12T03:58:38.381Z,86.85
2023-03-12T03:59:35.050Z,87.04
2023-03-12T04:00:31.926Z,87.11
2023-03-12T04:01:28.701Z,87.16
2023-03-12T04:02:27.005Z,87.19
2023-03-12T04:03:23.677Z,87.73
2023-03-12T04:04:20.398Z,87.33
2023-03-12T04:05:19.577Z,86.95
2023-03-12T04:06:16.326Z,87.54
2023-03-12T04:07:12.951Z,87.73
2023-03-12T04:08:09.533Z,89.19
2023-03-12T04:09:06.363Z,89.34
2023-03-12T04:10:04.468Z,88.70
2023-03-12T04:11:11.477Z,88.77
2023-03-12T04:12:08.172Z,88.87
2023-03-12T04:13:04.766Z,89.25
2023-03-12T04:14:01.487Z,88.68
2023-03-12T04:14:58.126Z,88.63
2023-03-12T04:15:54.719Z,88.65
2023-03-12T04:16:51.443Z,87.05
2023-03-12T04:17:48.167Z,85.60
2023-03-12T04:18:45.189Z,85.51
2023-03-12T04:19:42.207Z,84.82
2023-03-12T04:20:38.824Z,86.58
2023-03-12T04:21:35.459Z,86.45
2023-03-12T04:22:32.106Z,85.74
2023-03-12T04:23:28.740Z,84.79
2023-03-12T04:24:25.392Z,85.39
2023-03-12T04:25:21.968Z,85.69
2023-03-12T04:26:18.752Z,86.53
2023-03-12T04:27:15.451Z,85.96
2023-03-12T04:28:12.022Z,85.33
2023-03-12T04:29:08.739Z,85.59
2023-03-12T04:30:05.794Z,85.67
2023-03-12T04:31:05.546Z,86.46
2023-03-12T04:32:02.158Z,86.58
2023-03-12T04:32:58.826Z,87.85
2023-03-12T04:33:55.416Z,86.18
2023-03-12T04:34:52.086Z,84.11
2023-03-12T04:35:53.153Z,84.37
2023-03-12T04:36:50.189Z,83.84
2023-03-12T04:37:46.922Z,84.14
2023-03-12T04:38:43.614Z,82.41
2023-03-12T04:39:41.189Z,82.28
2023-03-12T04:40:37.846Z,82.85
2023-03-12T04:41:35.709Z,83.44
2023-03-12T04:42:32.304Z,83.46
2023-03-12T04:43:29.874Z,84.03
2023-03-12T04:44:26.497Z,83.81
2023-03-12T04:45:23.156Z,83.81
2023-03-12T04:46:19.998Z,84.73
2023-03-12T04:47:16.659Z,84.88
2023-03-12T04:48:13.176Z,84.97
2023-03-12T04:49:10.175Z,85.00
2023-03-12T04:50:07.499Z,85.66
2023-03-12T04:51:05.088Z,85.90
2023-03-12T04:52:01.766Z,87.14
2023-03-12T04:52:58.417Z,88.13
2023-03-12T04:53:55.490Z,88.22
2023-03-12T04:54:52.162Z,88.22
2023-03-12T04:55:49.387Z,87.42
2023-03-12T04:56:46.083Z,87.11
2023-03-12T04:57:42.663Z,86.46
2023-03-12T04:58:39.497Z,86.67
2023-03-12T04:59:36.125Z,87.92
2023-03-12T05:00:32.741Z,88.62
2023-03-12T05:01:32.618Z,87.02
2023-03-12T05:02:29.218Z,86.33
2023-03-12T05:03:25.958Z,86.61
2023-03-12T05:04:22.600Z,87.03
2023-03-12T05:05:19.424Z,85.32
2023-03-12T05:06:16.025Z,85.31
2023-03-12T05:07:12.884Z,85.06
2023-03-12T05:08:09.886Z,84.97
2023-03-12T05:09:06.457Z,84.96
2023-03-12T05:10:03.372Z,84.46
2023-03-12T05:10:59.949Z,84.59
2023-03-12T05:11:56.666Z,85.11
2023-03-12T05:12:53.420Z,85.09
2023-03-12T05:13:50.264Z,84.29
2023-03-12T05:14:46.978Z,85.21
2023-03-12T05:15:44.203Z,85.96
2023-03-12T05:16:41.176Z,86.07
2023-03-12T05:17:37.920Z,86.38
2023-03-12T05:18:34.846Z,86.39
2023-03-12T05:19:31.429Z,86.52
2023-03-12T05:20:28.046Z,86.37
2023-03-12T05:21:24.676Z,86.64
2023-03-12T05:22:21.228Z,87.10
2023-03-12T05:23:17.769Z,86.79
2023-03-12T05:24:15.412Z,86.19
2023-03-12T05:25:12.579Z,86.29
2023-03-12T05:26:18.450Z,86.76
2023-03-12T05:27:15.059Z,87.30
2023-03-12T05:28:11.653Z,86.97
2023-03-12T05:29:08.307Z,88.05
2023-03-12T05:30:07.183Z,87.90
2023-03-12T05:31:10.226Z,86.99
2023-03-12T05:32:07.610Z,86.88
2023-03-12T05:33:04.316Z,86.96
2023-03-12T05:34:04.897Z,87.12
2023-03-12T05:35:01.491Z,88.16
2023-03-12T05:35:58.280Z,87.86
2023-03-12T05:36:55.166Z,88.52
2023-03-12T05:37:51.897Z,87.67
2023-03-12T05:38:48.446Z,88.16
2023-03-12T05:39:46.960Z,88.18
2023-03-12T05:40:43.976Z,87.33
2023-03-12T05:41:40.609Z,87.83
2023-03-12T05:42:37.432Z,87.58
2023-03-12T05:43:34.604Z,87.20
2023-03-12T05:44:31.179Z,87.12
2023-03-12T05:45:28.003Z,86.35
2023-03-12T05:46:26.574Z,86.30
2023-03-12T05:47:23.275Z,85.34
2023-03-12T05:48:20.452Z,83.15
2023-03-12T05:49:17.707Z,83.06
2023-03-12T05:50:16.372Z,83.64
2023-03-12T05:51:12.992Z,83.60
2023-03-12T05:52:10.062Z,83.65
2023-03-12T05:53:06.755Z,83.76
2023-03-12T05:54:03.809Z,84.15
2023-03-12T05:55:00.470Z,84.06
2023-03-12T05:56:03.470Z,84.19
2023-03-12T05:57:00.528Z,84.56
2023-03-12T05:57:57.183Z,84.53
2023-03-12T05:58:53.889Z,83.21
2023-03-12T05:59:50.555Z,80.11
2023-03-12T06:00:49.468Z,80.40
2023-03-12T06:01:46.601Z,81.08
2023-03-12T06:02:43.890Z,82.15
2023-03-12T06:03:40.648Z,82.26
2023-03-12T06:04:37.348Z,80.40
2023-03-12T06:05:35.938Z,79.30
2023-03-12T06:06:34.369Z,79.80
2023-03-12T06:07:31.021Z,80.45
2023-03-12T06:08:27.597Z,80.03
2023-03-12T06:09:24.263Z,79.88
2023-03-12T06:10:20.996Z,80.91
2023-03-12T06:11:18.149Z,81.85
2023-03-12T06:12:14.778Z,82.08
2023-03-12T06:13:11.718Z,80.81
2023-03-12T06:14:08.428Z,78.09
2023-03-12T06:15:05.472Z,79.09
2023-03-12T06:16:07.684Z,77.93
2023-03-12T06:17:04.280Z,78.31
2023-03-12T06:18:00.915Z,78.44
2023-03-12T06:19:00.388Z,79.71
2023-03-12T06:19:57.029Z,79.22
2023-03-12T06:20:53.612Z,77.70
2023-03-12T06:21:50.506Z,78.47
2023-03-12T06:22:47.237Z,78.29
2023-03-12T06:23:44.796Z,78.08
2023-03-12T06:24:42.697Z,78.65
2023-03-12T06:25:39.366Z,76.83
2023-03-12T06:26:36.229Z,76.05
2023-03-12T06:27:32.963Z,78.34
2023-03-12T06:28:29.555Z,78.26
2023-03-12T06:29:26.248Z,78.38
2023-03-12T06:30:22.864Z,75.44
2023-03-12T06:31:21.322Z,76.00
2023-03-12T06:32:18.640Z,73.58
2023-03-12T06:33:15.224Z,75.22
2023-03-12T06:34:11.919Z,76.38
2023-03-12T06:35:08.972Z,74.09
2023-03-12T06:36:07.989Z,74.06
2023-03-12T06:37:04.807Z,75.94
2023-03-12T06:38:01.424Z,74.39
2023-03-12T06:38:58.053Z,71.35
2023-03-12T06:39:54.869Z,70.21
2023-03-12T06:41:02.934Z,71.12
2023-03-12T06:41:59.509Z,71.47
2023-03-12T06:42:56.107Z,72.25
2023-03-12T06:43:52.813Z,70.95
2023-03-12T06:44:50.319Z,72.03
2023-03-12T06:45:46.900Z,73.40
2023-03-12T06:46:44.453Z,72.30
2023-03-12T06:47:41.136Z,70.90
2023-03-12T06:48:41.224Z,70.21
2023-03-12T06:49:38.886Z,71.24
2023-03-12T06:50:35.836Z,70.39
2023-03-12T06:51:32.581Z,68.92
2023-03-12T06:52:29.200Z,67.88
2023-03-12T06:53:25.941Z,67.28
2023-03-12T06:54:22.474Z,69.62
2023-03-12T06:55:19.038Z,64.61
2023-03-12T06:56:16.219Z,67.19
2023-03-12T06:57:12.784Z,66.41
2023-03-12T06:58:09.566Z,65.41
2023-03-12T06:59:06.390Z,65.22
2023-03-12T07:00:04.938Z,65.43
2023-03-12T07:01:01.574Z,65.94
2023-03-12T07:01:58.389Z,66.93
2023-03-12T07:02:54.987Z,65.11
2023-03-12T07:03:51.724Z,65.01
2023-03-12T07:04:48.329Z,65.78
2023-03-12T07:05:48.393Z,64.78
2023-03-12T07:06:50.395Z,64.32
2023-03-12T07:07:47.037Z,61.32
2023-03-12T07:08:44.674Z,60.31
2023-03-12T07:09:41.284Z,61.40
2023-03-12T07:10:37.940Z,61.63
2023-03-12T07:11:34.569Z,62.26
2023-03-12T07:12:31.207Z,61.78
2023-03-12T07:13:27.803Z,61.70
2023-03-12T07:14:24.437Z,61.13
2023-03-12T07:15:21.502Z,61.40
2023-03-12T07:16:18.220Z,61.21
2023-03-12T07:17:14.921Z,62.46
2023-03-12T07:18:12.290Z,61.71
2023-03-12T07:19:08.970Z,60.61
2023-03-12T07:20:06.161Z,60.76
2023-03-12T07:21:02.939Z,61.35
2023-03-12T07:21:59.570Z,59.94
2023-03-12T07:22:56.164Z,60.33
2023-03-12T07:23:53.387Z,60.21
2023-03-12T07:24:51.370Z,62.23
2023-03-12T07:25:48.416Z,62.11
2023-03-12T07:26:46.076Z,60.22
2023-03-12T07:27:42.698Z,63.31
2023-03-12T07:28:39.314Z,59.20
2023-03-12T07:29:35.908Z,61.69
2023-03-12T07:30:33.744Z,61.70
2023-03-12T07:31:30.627Z,62.32
2023-03-12T07:32:27.454Z,60.07
2023-03-12T07:33:24.172Z,61.57
2023-03-12T07:34:20.928Z,62.22
2023-03-12T07:35:17.778Z,61.21
2023-03-12T07:36:14.564Z,59.78
2023-03-12T07:37:11.672Z,59.41
2023-03-12T07:38:10.063Z,61.10
2023-03-12T07:39:08.161Z,62.74
2023-03-12T07:40:08.791Z,60.33
2023-03-12T07:41:05.528Z,61.27
2023-03-12T07:42:02.288Z,60.31
2023-03-12T07:42:58.924Z,61.62
2023-03-12T07:43:55.575Z,59.87
2023-03-12T07:44:52.220Z,62.48
2023-03-12T07:45:49.995Z,58.68
2023-03-12T07:46:47.123Z,60.18
2023-03-12T07:47:44.675Z,59.81
2023-03-12T07:48:44.114Z,60.27
2023-03-12T07:49:41.888Z,59.60
2023-03-12T07:50:38.660Z,59.21
2023-03-12T07:51:35.554Z,57.70
2023-03-12T07:52:32.306Z,59.00
2023-03-12T07:53:28.911Z,61.11
2023-03-12T07:54:30.568Z,60.47
2023-03-12T07:55:27.285Z,58.74
2023-03-12T07:56:24.117Z,59.42
2023-03-12T07:57:20.763Z,60.42
2023-03-12T07:58:18.797Z,59.00
2023-03-12T07:59:15.584Z,59.84
2023-03-12T08:00:12.943Z,59.74
2023-03-12T08:01:09.816Z,57.94
2023-03-12T08:02:07.048Z,58.80
2023-03-12T08:03:03.949Z,58.94
2023-03-12T08:04:02.331Z,60.80
2023-03-12T08:04:59.035Z,57.81
2023-03-12T08:06:00.608Z,58.73
2023-03-12T08:06:57.333Z,59.47
2023-03-12T08:07:54.258Z,60.41
2023-03-12T08:08:51.169Z,60.40
2023-03-12T08:09:49.909Z,60.73
2023-03-12T08:10:46.856Z,59.52
2023-03-12T08:11:43.645Z,62.36
2023-03-12T08:12:40.260Z,59.11
2023-03-12T08:13:36.841Z,59.32
2023-03-12T08:14:34.296Z,61.11
2023-03-12T08:15:30.958Z,59.24
2023-03-12T08:16:27.566Z,58.73
2023-03-12T08:17:24.207Z,59.98
2023-03-12T08:18:22.122Z,61.14
2023-03-12T08:19:18.724Z,58.66
2023-03-12T08:20:15.469Z,60.14
2023-03-12T08:21:16.324Z,59.30
2023-03-12T08:22:13.220Z,58.31
2023-03-12T08:23:09.939Z,57.46
2023-03-12T08:24:06.849Z,59.97
2023-03-12T08:25:04.253Z,58.40
2023-03-12T08:26:00.839Z,59.00
2023-03-12T08:26:57.394Z,58.83
2023-03-12T08:27:54.107Z,59.16
2023-03-12T08:28:50.784Z,57.36
2023-03-12T08:29:47.389Z,57.63
2023-03-12T08:30:54.877Z,56.41
2023-03-12T08:32:04.177Z,57.17
2023-03-12T08:33:01.806Z,57.37
2023-03-12T08:33:58.477Z,55.88
2023-03-12T08:34:55.135Z,55.91
2023-03-12T08:35:51.892Z,57.80
2023-03-12T08:36:48.644Z,56.62
2023-03-12T08:37:45.531Z,55.01
2023-03-12T08:38:42.121Z,54.11
2023-03-12T08:39:38.871Z,53.45
2023-03-12T08:40:36.100Z,55.44
2023-03-12T08:41:32.906Z,53.54
2023-03-12T08:42:29.494Z,54.84
2023-03-12T08:43:29.335Z,57.17
2023-03-12T08:44:26.615Z,57.26
2023-03-12T08:45:23.254Z,56.71
2023-03-12T08:46:19.959Z,55.81
2023-03-12T08:47:16.593Z,56.43
2023-03-12T08:48:13.244Z,56.31
2023-03-12T08:49:09.878Z,54.54
2023-03-12T08:50:07.014Z,48.90
2023-03-12T08:51:04.412Z,51.69
2023-03-12T08:52:01.261Z,51.45
2023-03-12T08:52:58.985Z,48.56
2023-03-12T08:53:55.707Z,52.83
2023-03-12T08:54:52.385Z,51.98
2023-03-12T08:55:49.219Z,52.55
2023-03-12T08:56:49.039Z,49.75
2023-03-12T08:57:45.795Z,51.73
2023-03-12T08:58:42.557Z,50.31
2023-03-12T08:59:39.289Z,51.82
2023-03-12T09:00:35.895Z,51.96
2023-03-12T09:01:32.479Z,51.48
2023-03-12T09:02:29.173Z,50.24
2023-03-12T09:03:26.590Z,52.64
2023-03-12T09:04:23.390Z,50.85
2023-03-12T09:05:20.882Z,49.75
2023-03-12T09:06:19.444Z,49.37
2023-03-12T09:07:18.554Z,51.60
2023-03-12T09:08:15.908Z,52.11
2023-03-12T09:09:12.827Z,50.06
2023-03-12T09:10:10.002Z,48.06
2023-03-12T09:11:08.938Z,49.09
2023-03-12T09:12:05.840Z,50.27
2023-03-12T09:13:03.011Z,50.07
2023-03-12T09:14:42.433Z,49.18
2023-03-12T09:15:16.935Z,50.01
2023-03-12T09:16:13.499Z,48.00
2023-03-12T09:17:10.399Z,48.32
2023-03-12T09:18:07.033Z,50.42
2023-03-12T09:19:04.532Z,51.33
2023-03-12T09:20:01.299Z,51.25
2023-03-12T09:20:58.145Z,52.03
2023-03-12T09:21:54.942Z,51.60
2023-03-12T09:22:51.853Z,53.14
2023-03-12T09:23:48.420Z,53.87
2023-03-12T09:24:45.014Z,53.36
2023-03-12T09:25:45.623Z,54.21
2023-03-12T09:26:42.414Z,53.13
2023-03-12T09:27:44.760Z,52.31
2023-03-12T09:28:42.596Z,51.99
2023-03-12T09:29:49.690Z,52.69
2023-03-12T09:30:53.817Z,50.75
2023-03-12T09:31:51.622Z,50.94
2023-03-12T09:32:48.397Z,48.65
2023-03-12T09:33:45.142Z,49.65
2023-03-12T09:34:42.059Z,50.15
2023-03-12T09:35:38.887Z,52.10
2023-03-12T09:36:35.968Z,48.59
2023-03-12T09:37:33.117Z,50.60
2023-03-12T09:38:31.949Z,50.06
2023-03-12T09:39:28.557Z,46.98
2023-03-12T09:40:29.487Z,44.05
2023-03-12T09:41:30.309Z,46.63
2023-03-12T09:42:35.925Z,48.17
2023-03-12T09:44:03.674Z,48.41
2023-03-12T09:45:03.268Z,48.70
2023-03-12T09:46:01.234Z,47.41
2023-03-12T09:47:07.699Z,46.67
2023-03-12T09:48:07.740Z,45.77
2023-03-12T09:49:15.974Z,47.95
2023-03-12T09:50:23.210Z,46.03
2023-03-12T09:51:36.080Z,46.26
2023-03-12T09:52:38.363Z,47.77
2023-03-12T09:53:41.211Z,49.11
2023-03-12T09:55:03.614Z,49.97
2023-03-12T09:56:04.701Z,48.70
2023-03-12T09:57:09.414Z,47.79
2023-03-12T09:58:14.411Z,47.53
2023-03-12T09:59:13.761Z,47.95
2023-03-12T10:00:16.788Z,50.00
2023-03-12T10:01:41.675Z,48.23
2023-03-12T10:02:54.615Z,48.86
2023-03-12T10:04:06.854Z,46.00
2023-03-12T10:05:14.111Z,46.40
2023-03-12T10:06:18.293Z,46.41
2023-03-12T10:07:40.040Z,48.20
2023-03-12T10:08:42.379Z,48.16
2023-03-12T10:09:45.284Z,46.26
2023-03-12T10:10:59.382Z,46.06
2023-03-12T10:12:10.574Z,47.78
2023-03-12T10:13:33.932Z,45.41
2023-03-12T10:14:55.276Z,46.78
2023-03-12T10:16:13.444Z,47.17
2023-03-12T10:17:18.831Z,48.71
2023-03-12T10:18:41.413Z,46.38
2023-03-12T10:20:09.627Z,47.97
2023-03-12T10:21:12.021Z,47.30
2023-03-12T10:22:44.005Z,44.28
2023-03-12T10:24:18.921Z,47.25
2023-03-12T10:25:39.845Z,44.04
2023-03-12T10:26:42.934Z,45.96
2023-03-12T10:27:41.318Z,43.05
2023-03-12T10:28:43.514Z,43.85
2023-03-12T10:29:44.871Z,43.20
2023-03-12T10:30:46.007Z,44.71
2023-03-12T10:31:51.517Z,44.82
2023-03-12T10:32:52.431Z,46.39
2023-03-12T10:34:03.272Z,46.04
2023-03-12T10:35:04.225Z,46.53
2023-03-12T10:36:01.040Z,45.31
2023-03-12T10:37:26.263Z,46.54
2023-03-12T10:38:29.312Z,47.08
2023-03-12T10:39:26.256Z,48.18
2023-03-12T10:40:26.183Z,46.45
2023-03-12T10:41:25.626Z,46.02
2023-03-12T10:42:28.117Z,48.01
2023-03-12T10:43:24.806Z,47.00
2023-03-12T10:44:23.988Z,45.63
2023-03-12T10:45:41.502Z,47.23
2023-03-12T10:46:41.272Z,46.28
2023-03-12T10:47:43.168Z,46.65
2023-03-12T10:48:39.862Z,47.64
2023-03-12T10:49:37.693Z,48.11
2023-03-12T10:50:39.336Z,49.03
2023-03-12T10:51:54.472Z,48.44
2023-03-12T10:52:53.263Z,47.53
2023-03-12T10:53:49.906Z,47.00
2023-03-12T10:54:49.520Z,48.21
2023-03-12T10:56:02.588Z,45.41
2023-03-12T10:56:59.356Z,44.83
2023-03-12T10:57:56.858Z,44.99
2023-03-12T10:58:54.333Z,45.37
2023-03-12T10:59:51.522Z,45.52
2023-03-12T11:00:57.005Z,45.87
2023-03-12T11:01:53.694Z,47.06
2023-03-12T11:03:03.478Z,46.52
2023-03-12T11:04:17.884Z,45.83
2023-03-12T11:05:25.467Z,46.03
2023-03-12T11:06:29.760Z,46.88
2023-03-12T11:07:35.453Z,48.32
2023-03-12T11:08:35.279Z,48.62
2023-03-12T11:09:32.068Z,46.90
2023-03-12T11:10:40.858Z,46.46
2023-03-12T11:11:37.781Z,48.01
2023-03-12T11:12:39.913Z,47.94
2023-03-12T11:13:41.771Z,47.71
2023-03-12T11:14:46.755Z,47.38
2023-03-12T11:15:43.760Z,47.08
2023-03-12T11:16:40.419Z,48.74
2023-03-12T11:17:37.026Z,47.03
2023-03-12T11:18:37.817Z,48.20
2023-03-12T11:19:35.492Z,49.21
2023-03-12T11:20:32.269Z,46.20
2023-03-12T11:21:31.126Z,46.90
2023-03-12T11:22:31.994Z,47.07
2023-03-12T11:23:30.638Z,48.10
2023-03-12T11:24:27.819Z,48.96
2023-03-12T11:25:28.993Z,48.17
2023-03-12T11:26:39.890Z,48.63
2023-03-12T11:27:49.628Z,48.06
2023-03-12T11:29:01.212Z,47.56
2023-03-12T11:30:00.457Z,47.53
2023-03-12T11:30:58.383Z,49.08
2023-03-12T11:32:00.224Z,48.16
2023-03-12T11:32:58.224Z,48.39
2023-03-12T11:34:00.111Z,48.53
2023-03-12T11:34:57.136Z,46.71
2023-03-12T11:36:04.411Z,46.14
2023-03-12T11:37:11.248Z,46.74
2023-03-12T11:38:48.444Z,48.78
2023-03-12T11:39:47.779Z,45.64
2023-03-12T11:41:08.552Z,45.37
2023-03-12T11:42:11.146Z,48.73
2023-03-12T11:43:41.661Z,48.81
2023-03-12T11:44:42.505Z,45.51
2023-03-12T11:45:48.312Z,46.56
2023-03-12T11:46:59.624Z,47.21
2023-03-12T11:48:24.519Z,45.90
2023-03-12T11:49:36.828Z,45.01
2023-03-12T11:50:42.695Z,46.92
2023-03-12T11:52:18.262Z,45.87
2023-03-12T11:53:23.404Z,46.13
2023-03-12T11:54:25.414Z,48.26
2023-03-12T11:55:43.975Z,46.64
2023-03-12T11:56:44.277Z,47.01
2023-03-12T11:57:40.835Z,47.92
2023-03-12T11:59:02.002Z,47.74
2023-03-12T12:00:18.101Z,48.52
2023-03-12T12:01:53.157Z,46.86
2023-03-12T12:03:15.252Z,45.54
2023-03-12T12:04:33.041Z,46.34
2023-03-12T12:05:38.463Z,48.56
2023-03-12T12:06:50.551Z,50.97
2023-03-12T12:08:03.617Z,48.68
2023-03-12T12:09:07.032Z,48.71
2023-03-12T12:10:03.601Z,48.96
2023-03-12T12:11:02.959Z,49.97
2023-03-12T12:12:08.351Z,48.65
2023-03-12T12:13:27.893Z,47.42
2023-03-12T12:14:58.394Z,46.51
2023-03-12T12:16:02.011Z,46.35
2023-03-12T12:17:11.020Z,46.86
2023-03-12T12:18:29.304Z,47.31
2023-03-12T12:20:09.180Z,46.45
2023-03-12T12:21:44.616Z,48.18
2023-03-12T12:23:13.346Z,48.46
2023-03-12T12:24:36.789Z,46.93
2023-03-12T12:25:49.600Z,47.25
2023-03-12T12:26:53.760Z,45.40
2023-03-12T12:28:01.804Z,46.73
2023-03-12T12:29:02.055Z,46.93
2023-03-12T12:30:04.658Z,47.82
2023-03-12T12:31:16.607Z,46.55
2023-03-12T12:32:23.729Z,46.17
2023-03-12T12:33:54.499Z,47.85
2023-03-12T12:35:19.790Z,47.87
2023-03-12T12:36:18.116Z,47.84
2023-03-12T12:37:18.971Z,46.26
2023-03-12T12:38:34.174Z,49.03
2023-03-12T12:39:43.104Z,46.18
2023-03-12T12:40:51.914Z,43.72
2023-03-12T12:41:53.189Z,46.20
2023-03-12T12:42:58.200Z,46.47
2023-03-12T12:44:02.770Z,49.02
2023-03-12T12:45:03.248Z,45.67
2023-03-12T12:46:04.741Z,47.08
2023-03-12T12:47:05.615Z,46.01
2023-03-12T12:48:07.384Z,45.84
2023-03-12T12:49:18.426Z,46.12
2023-03-12T12:50:20.238Z,46.10
2023-03-12T12:51:21.193Z,46.05
2023-03-12T12:52:20.528Z,46.29
2023-03-12T12:53:28.498Z,44.79